Time;durP1;ratioP1;P1;durP2;ratioP2;P2;SDS_P1;SDS_P2;PMS_P1;PMS_P2;Temp;Humidity;BMP_temperature;BMP_pressure;BME280_temperature;BME280_humidity;BME280_pressure;Samples;Min_cycle;Max_cycle;Signal;HPM_P1;HPM_P2
2022/12/13 00:01:39;;;;;;;;;42.25;35.50;;;;;0.89;61.11;100121.44;5072362;27;45545;-74
2022/12/13 00:04:06;;;;;;;;;28.75;25.75;;;;;2.13;62.15;100336.81;5073042;27;45613;-75
2022/12/13 00:06:32;;;;;;;;;32.25;31.75;;;;;0.52;62.18;100057.72;5072430;27;46548;-75
2022/12/13 00:08:58;;;;;;;;;33.50;32.25;;;;;0.79;62.15;100097.22;5071016;28;45667;-75
2022/12/13 00:11:24;;;;;;;;;37.00;34.50;;;;;2.22;61.91;100327.78;5072109;28;45536;-75
2022/12/13 00:13:50;;;;;;;;;35.00;29.75;;;;;2.19;62.00;100318.22;5072511;28;45445;-74
2022/12/13 00:16:18;;;;;;;;;45.00;32.00;;;;;-0.40;61.90;99933.50;5072044;28;46051;-75
2022/12/13 00:18:50;;;;;;;;;27.75;25.25;;;;;2.15;61.37;100316.59;5075999;27;45531;-75
2022/12/13 00:21:18;;;;;;;;;29.75;25.75;;;;;1.91;61.50;100261.19;5076331;28;45421;-74
2022/12/13 00:23:44;;;;;;;;;31.00;26.75;;;;;2.17;61.55;100322.66;5055728;28;45387;-74
2022/12/13 00:26:12;;;;;;;;;34.75;31.50;;;;;2.23;61.57;100313.69;5055610;28;46320;-74
2022/12/13 00:28:38;;;;;;;;;36.75;28.25;;;;;2.29;60.90;100308.25;5054233;28;45785;-75
2022/12/13 00:31:04;;;;;;;;;29.50;28.00;;;;;2.03;61.22;100293.28;5055770;28;45967;-74
2022/12/13 00:33:29;;;;;;;;;37.25;31.00;;;;;-0.27;61.33;99933.16;5055938;28;45453;-73
2022/12/13 00:35:56;;;;;;;;;32.00;25.50;;;;;2.21;61.01;100310.25;5056080;28;46178;-73
2022/12/13 00:38:22;;;;;;;;;38.75;32.75;;;;;1.43;60.89;100196.03;5065939;28;45463;-73
2022/12/13 00:40:47;;;;;;;;;29.50;28.00;;;;;2.08;61.21;100299.25;5077294;27;45344;-73
2022/12/13 00:43:12;;;;;;;;;32.00;28.50;;;;;-0.44;61.36;99916.16;5077538;27;45474;-74
2022/12/13 00:45:39;;;;;;;;;32.50;29.75;;;;;2.08;61.20;100304.50;5076349;27;45466;-73
2022/12/13 00:48:05;;;;;;;;;17.75;16.50;;;;;1.15;61.16;100150.44;5074293;28;45938;-75
2022/12/13 00:50:31;;;;;;;;;38.25;30.25;;;;;0.12;61.09;100019.50;5075092;28;45665;-73
2022/12/13 00:52:59;;;;;;;;;26.50;24.50;;;;;0.63;61.44;100094.16;5075664;27;45466;-75
2022/12/13 00:55:25;;;;;;;;;31.00;25.00;;;;;1.85;61.43;100296.44;5075096;27;45659;-75
2022/12/13 00:57:51;;;;;;;;;24.50;23.75;;;;;0.15;61.36;100032.53;5075378;27;45473;-75
2022/12/13 01:00:16;;;;;;;;;33.25;28.00;;;;;-0.68;61.31;99842.53;5075180;27;45527;-75
2022/12/13 01:02:42;;;;;;;;;34.50;25.00;;;;;2.17;61.17;100314.75;5075498;27;45501;-74
2022/12/13 01:11:56;;;;;;;;;23.75;21.75;;;;;2.02;60.27;100279.25;4583778;27;47102;-73
2022/12/13 01:14:21;;;;;;;;;22.00;19.00;;;;;1.89;60.83;100294.59;5074820;27;45481;-74
2022/12/13 01:16:46;;;;;;;;;28.00;22.00;;;;;1.99;60.65;100296.00;5075208;28;45479;-73
2022/12/13 01:19:12;;;;;;;;;25.00;19.50;;;;;1.94;61.18;100297.91;5074868;27;45434;-73
2022/12/13 01:21:37;;;;;;;;;37.00;26.25;;;;;1.62;60.44;100144.63;5075140;27;45361;-74
2022/12/13 01:24:04;;;;;;;;;23.75;21.75;;;;;1.83;59.97;100252.66;5074938;28;45458;-74
2022/12/13 01:26:31;;;;;;;;;22.75;19.00;;;;;2.10;60.49;100286.91;5074654;27;47355;-74
2022/12/13 01:28:57;;;;;;;;;28.75;26.75;;;;;2.08;59.80;100288.72;5072358;28;45859;-74
2022/12/13 01:31:22;;;;;;;;;27.00;23.50;;;;;1.56;60.68;100205.28;5075112;27;45496;-73
2022/12/13 01:33:48;;;;;;;;;27.50;21.25;;;;;1.14;60.22;100159.22;5074690;28;45492;-73
2022/12/13 01:36:16;;;;;;;;;27.50;24.00;;;;;2.08;60.41;100292.25;5074620;27;46186;-73
2022/12/13 01:38:42;;;;;;;;;23.50;22.25;;;;;1.16;59.74;100138.13;5074720;27;45445;-74
2022/12/13 01:41:12;;;;;;;;;23.75;22.75;;;;;0.77;60.58;100102.53;5074981;28;45382;-74
2022/12/13 01:43:41;;;;;;;;;23.25;21.00;;;;;1.98;60.99;100289.03;5074613;27;45937;-73
2022/12/13 01:46:06;;;;;;;;;23.75;20.75;;;;;1.95;60.26;100278.59;5074635;27;45440;-73
2022/12/13 01:48:39;;;;;;;;;25.25;17.75;;;;;1.99;60.48;100282.00;5072960;28;45946;-73
2022/12/13 01:51:08;;;;;;;;;28.75;21.50;;;;;2.16;59.78;100281.44;5074630;28;45456;-73
2022/12/13 01:53:39;;;;;;;;;32.75;22.75;;;;;2.01;59.83;100260.00;5074492;27;45402;-73
2022/12/13 01:56:14;;;;;;;;;23.75;20.50;;;;;2.22;60.01;100286.53;5074600;27;46169;-73
2022/12/13 01:58:40;;;;;;;;;21.50;21.50;;;;;-1.27;59.55;99703.66;5074350;28;45700;-74
2022/12/13 02:01:06;;;;;;;;;27.25;23.50;;;;;1.32;58.94;100139.41;5074062;27;45382;-73
2022/12/13 02:03:33;;;;;;;;;23.75;22.25;;;;;2.16;59.65;100299.88;5074124;27;45462;-74
2022/12/13 02:06:12;;;;;;;;;25.25;21.00;;;;;2.18;59.87;100295.44;5074308;28;45560;-74
2022/12/13 02:08:40;;;;;;;;;25.25;23.50;;;;;1.74;58.69;100224.91;5074488;28;45699;-75
2022/12/13 02:11:06;;;;;;;;;24.00;21.00;;;;;2.16;59.24;100306.00;5073786;27;45531;-73
2022/12/13 02:13:32;;;;;;;;;23.50;20.50;;;;;2.17;58.87;100299.84;5073968;27;45575;-73
2022/12/13 02:16:10;;;;;;;;;23.00;18.25;;;;;2.17;59.63;100293.69;5074158;27;45616;-73
2022/12/13 02:18:54;;;;;;;;;25.75;19.50;;;;;2.23;59.67;100298.78;5073840;27;45751;-74
2022/12/13 02:21:55;;;;;;;;;26.75;22.25;;;;;2.19;58.51;100298.00;5074133;28;45442;-73
2022/12/13 02:25:07;;;;;;;;;19.50;17.25;;;;;2.15;58.61;100296.38;5070661;28;45680;-72
2022/12/13 02:27:45;;;;;;;;;27.50;20.75;;;;;2.14;59.17;100299.06;5073488;28;46663;-73
2022/12/13 02:30:29;;;;;;;;;29.50;20.75;;;;;1.41;59.65;100182.09;5073991;27;45544;-75
2022/12/13 02:33:11;;;;;;;;;17.75;17.25;;;;;2.10;59.14;100292.19;5072461;28;45639;-74
2022/12/13 02:35:47;;;;;;;;;20.25;18.75;;;;;2.10;59.30;100292.19;5073757;27;45638;-74
2022/12/13 02:38:18;;;;;;;;;21.75;18.00;;;;;2.09;59.61;100285.19;5073542;27;47151;-74
2022/12/13 02:40:53;;;;;;;;;24.25;20.00;;;;;2.09;59.19;100295.72;5071911;28;45783;-73
2022/12/13 02:43:37;;;;;;;;;20.50;16.50;;;;;1.84;59.08;100285.97;5073914;27;45378;-74
2022/12/13 02:46:06;;;;;;;;;21.50;19.75;;;;;1.59;58.88;100236.72;5073721;27;45576;-74
2022/12/13 02:48:36;;;;;;;;;28.50;21.75;;;;;1.90;59.29;100296.28;5073322;27;46208;-74
2022/12/13 02:51:03;;;;;;;;;22.25;20.50;;;;;1.67;58.48;100255.78;5073427;27;45430;-74
2022/12/13 02:53:31;;;;;;;;;21.25;17.50;;;;;1.89;58.60;100293.69;5073577;27;45461;-74
2022/12/13 02:55:56;;;;;;;;;22.25;21.00;;;;;1.81;59.29;100296.59;5072028;28;45657;-74
2022/12/13 02:58:29;;;;;;;;;25.25;19.75;;;;;1.76;59.12;100265.16;5068509;27;46199;-74
2022/12/13 03:01:25;;;;;;;;;24.75;19.25;;;;;1.97;59.34;100284.69;5053256;28;45417;-76
2022/12/13 03:04:26;;;;;;;;;24.75;23.50;;;;;1.67;58.51;100253.16;5053353;28;45667;-74
2022/12/13 03:07:15;;;;;;;;;25.25;20.50;;;;;1.87;58.34;100280.59;5049489;28;45370;-73
2022/12/13 03:09:58;;;;;;;;;19.75;18.75;;;;;1.76;58.89;100269.56;5052430;28;45624;-73
2022/12/13 03:15:20;;;;;;;;;22.50;21.75;;;;;1.73;58.70;100269.63;5073004;28;45520;-73
2022/12/13 03:17:54;;;;;;;;;24.50;19.50;;;;;1.81;59.02;100262.41;5073067;27;45356;-73
2022/12/13 03:20:24;;;;;;;;;20.25;20.25;;;;;1.05;58.71;100132.34;5072755;28;45486;-73
2022/12/13 03:22:51;;;;;;;;;21.00;18.00;;;;;0.64;59.07;100074.91;5072922;28;45512;-74
2022/12/13 03:25:17;;;;;;;;;23.50;19.50;;;;;1.87;58.91;100258.69;5072652;28;45369;-74
2022/12/13 03:27:42;;;;;;;;;15.50;15.50;;;;;1.92;59.28;100252.38;5073340;27;45349;-74
2022/12/13 03:30:08;;;;;;;;;23.50;20.75;;;;;0.71;58.27;100072.94;5072863;27;46112;-73
2022/12/13 03:32:34;;;;;;;;;22.50;19.25;;;;;1.36;58.58;100228.66;5072842;28;45528;-73
2022/12/13 03:34:59;;;;;;;;;35.75;29.50;;;;;1.47;59.46;100256.38;5073221;27;45366;-73
2022/12/13 03:37:24;;;;;;;;;26.00;23.00;;;;;1.53;59.25;100246.59;5073227;27;45409;-74
2022/12/13 03:39:50;;;;;;;;;28.75;24.00;;;;;1.52;58.90;100248.34;5072683;27;45405;-74
2022/12/13 03:42:16;;;;;;;;;26.00;19.50;;;;;1.25;59.45;100189.56;5073870;28;45366;-74
2022/12/13 03:44:42;;;;;;;;;21.50;21.50;;;;;0.68;59.07;100125.56;5073204;28;45505;-74
2022/12/13 03:47:07;;;;;;;;;27.00;22.50;;;;;1.51;59.63;100242.22;5073070;27;45499;-74
2022/12/13 03:49:33;;;;;;;;;23.75;21.25;;;;;1.02;59.32;100200.75;5072556;27;46368;-74
2022/12/13 03:51:58;;;;;;;;;15.50;13.00;;;;;0.19;58.97;100086.66;5074887;27;45412;-75
2022/12/13 03:54:23;;;;;;;;;21.00;19.75;;;;;0.46;59.68;100107.75;5076001;27;45380;-74
2022/12/13 03:56:49;;;;;;;;;29.75;26.00;;;;;1.26;59.15;100241.22;5074863;28;45478;-74
2022/12/13 03:59:14;;;;;;;;;25.50;22.50;;;;;1.37;59.57;100238.28;5076010;27;45459;-74
2022/12/13 04:01:39;;;;;;;;;26.25;22.00;;;;;1.46;59.53;100243.28;5075887;27;45483;-74
2022/12/13 04:04:05;;;;;;;;;27.75;17.25;;;;;1.58;59.47;100257.81;5075669;27;45464;-74
2022/12/13 04:06:30;;;;;;;;;26.50;20.00;;;;;1.63;58.88;100253.28;5075954;27;45416;-74
2022/12/13 04:08:55;;;;;;;;;23.50;21.25;;;;;0.47;58.96;100063.13;5075151;27;46617;-74
2022/12/13 04:14:05;;;;;;;;;19.50;14.75;;;;;1.02;59.80;100143.81;5075800;28;45518;-74
2022/12/13 04:16:30;;;;;;;;;13.25;12.75;;;;;1.58;58.81;100235.03;5075870;27;45832;-74
2022/12/13 04:18:55;;;;;;;;;29.00;26.00;;;;;1.26;59.08;100184.25;5074926;27;45553;-74
2022/12/13 04:21:21;;;;;;;;;23.75;21.50;;;;;1.57;59.04;100237.69;5075824;28;45520;-74
2022/12/13 04:23:46;;;;;;;;;23.00;20.00;;;;;1.71;58.81;100245.16;5075806;28;45537;-74
2022/12/13 04:26:12;;;;;;;;;28.00;23.00;;;;;0.81;58.38;100156.66;5075902;27;45627;-74
2022/12/13 04:28:37;;;;;;;;;22.75;20.00;;;;;1.36;58.04;100219.00;5075584;27;46052;-74
2022/12/13 04:31:03;;;;;;;;;25.25;25.25;;;;;0.98;59.22;100198.19;5075721;27;45421;-74
2022/12/13 04:33:31;;;;;;;;;24.25;20.75;;;;;0.54;59.16;100132.06;5075688;27;45541;-75
2022/12/13 04:35:56;;;;;;;;;32.75;24.25;;;;;0.20;58.61;100041.13;5075622;27;45671;-74
2022/12/13 04:38:22;;;;;;;;;27.50;22.50;;;;;-0.84;58.12;99888.38;5074970;27;45966;-74
2022/12/13 04:40:47;;;;;;;;;27.25;24.75;;;;;0.77;58.85;100186.53;5075540;27;45428;-74
2022/12/13 04:43:13;;;;;;;;;25.75;25.75;;;;;-1.45;59.20;99815.75;5075877;27;45494;-74
2022/12/13 04:45:38;;;;;;;;;28.25;26.00;;;;;-1.60;59.10;99793.44;5075561;27;45450;-73
2022/12/13 04:48:04;;;;;;;;;28.75;23.75;;;;;-0.04;59.85;100017.31;5074079;28;45555;-74
2022/12/13 04:50:29;;;;;;;;;36.25;28.00;;;;;0.59;59.69;100119.63;5075306;27;45468;-74
2022/12/13 04:52:55;;;;;;;;;30.25;28.50;;;;;-0.53;59.02;99972.28;5073725;28;45503;-74
2022/12/13 04:55:20;;;;;;;;;29.00;28.75;;;;;0.55;60.31;100154.75;5074128;28;45540;-74
2022/12/13 04:57:45;;;;;;;;;28.75;26.00;;;;;0.99;59.91;100217.47;5075225;27;45493;-74
2022/12/13 05:00:12;;;;;;;;;32.50;25.50;;;;;1.04;60.01;100231.34;5075247;27;45413;-74
2022/12/13 05:02:38;;;;;;;;;30.25;22.50;;;;;-0.29;59.59;99993.50;5057313;28;45322;-73
2022/12/13 05:05:03;;;;;;;;;24.50;23.50;;;;;1.13;59.98;100217.06;5075141;27;45328;-74
2022/12/13 05:07:29;;;;;;;;;30.50;29.00;;;;;-0.55;59.79;99934.78;5074917;27;45432;-74
2022/12/13 05:09:54;;;;;;;;;30.50;26.00;;;;;1.28;59.46;100219.25;5075074;27;45411;-74
2022/12/13 05:12:19;;;;;;;;;30.00;23.00;;;;;0.73;59.39;100121.91;5073431;28;45376;-73
2022/12/13 05:14:45;;;;;;;;;23.50;22.50;;;;;1.24;59.30;100186.09;5075106;27;45433;-74
2022/12/13 05:17:10;;;;;;;;;27.75;24.00;;;;;1.42;58.73;100213.59;5073349;28;45382;-74
2022/12/13 05:19:35;;;;;;;;;32.50;23.00;;;;;1.19;58.68;100182.75;5074941;27;45357;-74
2022/12/13 05:22:01;;;;;;;;;35.00;28.25;;;;;1.29;58.88;100196.47;5074896;28;45399;-74
2022/12/13 05:24:26;;;;;;;;;38.00;31.50;;;;;-0.08;58.86;99968.47;5074786;27;45386;-74
2022/12/13 05:26:51;;;;;;;;;29.00;23.50;;;;;1.43;59.19;100212.69;5074758;27;46188;-74
2022/12/13 05:29:17;;;;;;;;;33.00;26.50;;;;;1.43;59.39;100215.31;5074823;27;45502;-74
2022/12/13 05:31:42;;;;;;;;;27.00;23.25;;;;;1.48;59.72;100226.53;5074859;27;45413;-74
2022/12/13 05:34:08;;;;;;;;;29.50;24.75;;;;;0.97;59.09;100135.19;5074870;27;45453;-74
2022/12/13 05:36:33;;;;;;;;;34.75;29.50;;;;;1.17;59.36;100195.03;5072837;28;45509;-74
2022/12/13 05:38:58;;;;;;;;;34.25;25.50;;;;;0.54;59.13;100112.81;5074342;27;45572;-74
2022/12/13 05:41:28;;;;;;;;;28.50;28.25;;;;;1.32;59.55;100228.78;5074929;27;45428;-75
2022/12/13 05:43:53;;;;;;;;;35.00;31.75;;;;;-1.72;59.17;99750.13;5074833;27;45559;-74
2022/12/13 05:46:19;;;;;;;;;37.50;36.25;;;;;-2.04;58.83;99727.38;5074296;27;46136;-74
2022/12/13 05:48:44;;;;;;;;;32.25;29.00;;;;;0.78;59.83;100183.03;5074516;27;45784;-74
2022/12/13 05:51:10;;;;;;;;;33.25;30.00;;;;;1.21;59.11;100233.47;5072665;28;45689;-74
2022/12/13 05:53:36;;;;;;;;;37.75;33.25;;;;;1.16;59.57;100230.09;5074241;27;45434;-74
2022/12/13 05:56:01;;;;;;;;;35.50;26.00;;;;;1.23;59.60;100234.28;5074103;28;46062;-73
2022/12/13 05:58:28;;;;;;;;;38.50;32.50;;;;;0.88;59.09;100181.00;5074313;28;45488;-75
2022/12/13 06:00:53;;;;;;;;;26.75;20.50;;;;;0.78;59.79;100201.41;5074015;27;45563;-75
2022/12/13 06:03:19;;;;;;;;;37.25;33.25;;;;;-1.20;60.14;99880.59;5073484;27;45549;-75
2022/12/13 06:05:44;;;;;;;;;38.50;36.50;;;;;0.75;60.28;100174.34;5106367;27;45413;-72
2022/12/13 06:08:10;;;;;;;;;42.00;35.25;;;;;0.29;59.31;100077.59;5073963;27;45502;-74
2022/12/13 06:10:36;;;;;;;;;33.50;28.50;;;;;1.36;59.57;100244.44;5074308;27;45440;-74
2022/12/13 06:13:04;;;;;;;;;38.00;27.00;;;;;0.90;59.68;100173.91;5073880;27;45593;-74
2022/12/13 06:15:31;;;;;;;;;42.75;40.50;;;;;0.68;59.65;100157.91;5073433;27;46195;-73
2022/12/13 06:17:58;;;;;;;;;43.75;36.75;;;;;1.34;60.09;100250.59;5073735;28;45788;-74
2022/12/13 06:20:23;;;;;;;;;33.00;27.75;;;;;1.18;59.67;100233.56;5073858;28;45578;-74
2022/12/13 06:22:49;;;;;;;;;34.00;33.00;;;;;1.26;59.23;100231.56;5074336;28;45634;-73
2022/12/13 06:25:14;;;;;;;;;38.25;30.75;;;;;1.13;59.64;100224.94;5073584;28;46034;-74
2022/12/13 06:27:40;;;;;;;;;32.00;28.00;;;;;1.38;59.35;100258.38;5073919;27;45504;-74
2022/12/13 06:30:06;;;;;;;;;26.50;20.75;;;;;1.39;59.89;100262.75;5074470;27;45546;-73
2022/12/13 06:32:31;;;;;;;;;32.50;29.75;;;;;1.38;59.92;100261.91;5074113;27;45417;-74
2022/12/13 06:34:56;;;;;;;;;32.25;29.75;;;;;1.36;59.94;100253.19;5073757;27;45709;-74
2022/12/13 06:37:22;;;;;;;;;32.00;26.50;;;;;1.45;59.59;100268.69;5072755;28;45465;-75
2022/12/13 06:39:47;;;;;;;;;30.75;27.00;;;;;1.51;59.43;100254.50;5074264;27;45421;-72
2022/12/13 06:42:15;;;;;;;;;35.75;30.00;;;;;1.48;58.98;100244.94;5074762;27;46123;-72
2022/12/13 06:44:41;;;;;;;;;39.50;33.75;;;;;1.34;58.86;100244.50;5073964;28;45444;-72
2022/12/13 06:47:07;;;;;;;;;32.50;31.50;;;;;1.14;59.27;100208.28;5073277;27;45632;-74
2022/12/13 06:49:32;;;;;;;;;27.25;26.00;;;;;0.97;59.23;100164.97;5073207;27;45747;-72
2022/12/13 06:51:57;;;;;;;;;28.00;26.25;;;;;0.35;59.16;100078.34;5073457;27;45535;-74
2022/12/13 06:54:23;;;;;;;;;30.75;28.25;;;;;1.21;59.19;100201.94;5073144;27;46043;-74
2022/12/13 06:56:48;;;;;;;;;36.75;33.75;;;;;0.83;59.65;100188.13;5073201;27;45491;-72
2022/12/13 06:59:13;;;;;;;;;40.75;37.00;;;;;0.97;59.77;100216.63;5073605;27;45885;-76
2022/12/13 07:01:39;;;;;;;;;38.25;32.00;;;;;0.79;59.82;100168.97;5071557;27;45779;-75
2022/12/13 07:04:05;;;;;;;;;33.75;29.50;;;;;1.02;59.77;100234.91;5073115;27;45604;-74
2022/12/13 07:06:30;;;;;;;;;39.50;29.75;;;;;1.00;60.24;100229.69;5072360;27;45630;-74
2022/12/13 07:08:57;;;;;;;;;41.25;35.00;;;;;1.04;60.12;100235.69;5071078;28;45450;-75
2022/12/13 07:11:28;;;;;;;;;35.00;30.00;;;;;1.09;60.17;100244.31;5072313;28;45480;-74
2022/12/13 07:13:54;;;;;;;;;41.75;30.25;;;;;1.08;60.57;100232.09;5071935;27;45412;-74
2022/12/13 07:16:21;;;;;;;;;36.50;34.00;;;;;1.22;60.48;100229.94;5071256;28;46113;-75
2022/12/13 07:18:46;;;;;;;;;34.25;26.50;;;;;1.25;59.98;100235.09;5073130;27;45606;-75
2022/12/13 07:21:13;;;;;;;;;30.25;26.75;;;;;1.08;59.88;100242.59;5073107;28;45353;-74
2022/12/13 07:23:40;;;;;;;;;31.75;28.50;;;;;1.07;60.46;100214.63;5088585;27;47566;-74
2022/12/13 07:26:07;;;;;;;;;36.25;30.75;;;;;1.26;60.28;100246.47;5071875;27;45460;-75
2022/12/13 07:28:34;;;;;;;;;34.25;27.00;;;;;0.84;60.43;100189.84;5073000;27;45496;-74
2022/12/13 07:31:01;;;;;;;;;36.75;29.25;;;;;1.19;60.04;100251.06;5072887;28;45519;-74
2022/12/13 07:33:28;;;;;;;;;30.25;29.50;;;;;1.00;60.08;100217.41;5088424;27;45576;-74
2022/12/13 07:36:06;;;;;;;;;37.00;31.00;;;;;0.92;59.86;100184.38;5072931;27;45354;-74
2022/12/13 07:38:36;;;;;;;;;37.25;32.75;;;;;1.37;59.57;100254.06;5073531;28;45555;-74
2022/12/13 07:41:02;;;;;;;;;36.25;35.00;;;;;1.31;59.36;100247.19;5072707;27;45633;-74
2022/12/13 07:43:28;;;;;;;;;36.50;31.00;;;;;1.42;59.65;100255.63;5072917;27;45659;-75
2022/12/13 07:45:58;;;;;;;;;32.00;27.25;;;;;1.34;58.53;100261.09;5073297;27;45458;-74
2022/12/13 07:48:23;;;;;;;;;31.50;29.50;;;;;1.30;59.47;100270.00;5088392;27;45580;-74
2022/12/13 07:50:48;;;;;;;;;33.25;31.75;;;;;1.29;59.19;100268.25;5073199;27;45346;-74
2022/12/13 07:53:14;;;;;;;;;35.50;34.25;;;;;1.40;59.32;100280.25;5073082;27;45904;-75
2022/12/13 07:55:39;;;;;;;;;35.50;34.50;;;;;1.45;59.41;100288.88;5054432;28;45734;-75
2022/12/13 07:58:13;;;;;;;;;41.00;36.00;;;;;1.50;58.83;100294.84;5072958;27;45518;-75
2022/12/13 08:00:41;;;;;;;;;31.75;28.50;;;;;1.10;58.29;100238.16;5072345;27;45499;-74
2022/12/13 08:03:06;;;;;;;;;33.50;30.50;;;;;0.98;59.57;100247.25;5072427;27;45696;-74
2022/12/13 08:05:33;;;;;;;;;32.75;31.00;;;;;1.40;59.44;100290.75;5054044;28;45426;-74
2022/12/13 08:08:03;;;;;;;;;45.25;39.00;;;;;1.42;58.78;100296.84;5088018;27;45646;-74
2022/12/13 08:10:28;;;;;;;;;46.50;36.50;;;;;1.22;58.91;100265.88;5072111;27;45531;-74
2022/12/13 08:12:54;;;;;;;;;38.00;34.25;;;;;1.32;58.67;100264.69;5071881;27;46165;-74
2022/12/13 08:15:20;;;;;;;;;41.50;38.75;;;;;0.97;58.96;100192.97;5071657;27;45751;-74
2022/12/13 08:17:46;;;;;;;;;44.00;39.25;;;;;1.12;59.38;100210.06;5071917;27;45654;-74
2022/12/13 08:20:11;;;;;;;;;36.50;34.50;;;;;1.71;58.94;100295.13;5070632;28;45783;-74
2022/12/13 08:22:36;;;;;;;;;44.00;35.50;;;;;1.78;58.47;100301.91;5071835;28;45423;-74
2022/12/13 08:25:02;;;;;;;;;34.50;31.25;;;;;1.85;58.25;100314.00;5071810;27;45747;-74
2022/12/13 08:27:28;;;;;;;;;43.50;36.75;;;;;1.43;58.52;100222.31;5070709;28;45803;-74
2022/12/13 08:29:53;;;;;;;;;39.25;38.00;;;;;1.83;57.65;100300.00;5070550;28;45594;-74
2022/12/13 08:32:19;;;;;;;;;45.00;38.00;;;;;1.30;58.06;100209.53;5071841;28;45622;-74
2022/12/13 08:34:44;;;;;;;;;40.25;37.25;;;;;1.42;58.23;100220.63;5071947;27;45639;-74
2022/12/13 08:37:10;;;;;;;;;38.50;30.25;;;;;1.94;58.26;100300.53;5073237;27;45520;-74
2022/12/13 08:39:37;;;;;;;;;41.00;39.25;;;;;1.75;57.50;100296.75;5075290;27;45400;-74
2022/12/13 08:42:05;;;;;;;;;44.25;38.00;;;;;1.54;58.69;100245.66;5075499;28;46126;-74
2022/12/13 08:44:31;;;;;;;;;40.75;36.75;;;;;1.17;58.03;100216.06;5075138;28;45497;-73
2022/12/13 08:46:56;;;;;;;;;44.75;34.25;;;;;1.60;58.64;100270.00;5075856;27;45380;-73
2022/12/13 08:49:21;;;;;;;;;39.25;35.50;;;;;1.29;58.00;100210.44;5075664;27;45449;-73
2022/12/13 08:51:47;;;;;;;;;46.00;42.00;;;;;0.67;57.43;100111.56;5075043;27;47059;-73
2022/12/13 08:54:12;;;;;;;;;44.75;36.75;;;;;0.88;57.73;100148.59;5073889;28;45664;-72
2022/12/13 08:56:37;;;;;;;;;36.00;34.75;;;;;1.60;57.62;100319.97;5075138;27;45435;-73
2022/12/13 08:59:03;;;;;;;;;36.75;34.00;;;;;1.54;57.77;100317.53;5075164;27;45460;-73
2022/12/13 09:01:28;;;;;;;;;46.00;38.75;;;;;1.75;58.23;100313.38;5073704;28;47573;-73
2022/12/13 09:03:54;;;;;;;;;49.00;39.50;;;;;1.90;57.42;100308.59;5075169;27;45375;-73
2022/12/13 09:06:20;;;;;;;;;40.25;38.25;;;;;1.78;58.56;100275.63;5073727;28;45425;-74
2022/12/13 09:08:46;;;;;;;;;50.75;43.75;;;;;2.18;57.29;100287.53;5073136;28;45505;-73
2022/12/13 09:11:11;;;;;;;;;39.00;35.00;;;;;2.37;56.95;100292.22;5074691;27;45704;-74
2022/12/13 09:13:38;;;;;;;;;35.00;27.50;;;;;2.00;55.94;100271.41;5073505;28;45479;-74
2022/12/13 09:16:10;;;;;;;;;46.00;40.00;;;;;2.23;56.28;100290.00;5075049;27;45443;-73
2022/12/13 09:18:35;;;;;;;;;46.75;40.00;;;;;2.21;56.46;100299.75;5074790;27;45623;-74
2022/12/13 09:21:08;;;;;;;;;44.00;34.50;;;;;2.08;56.35;100288.72;5074359;27;45792;-75
2022/12/13 09:23:34;;;;;;;;;43.25;39.50;;;;;1.81;55.79;100228.19;5074701;27;45365;-74
2022/12/13 09:26:00;;;;;;;;;46.25;38.50;;;;;2.27;55.74;100286.41;5075015;27;45368;-74
2022/12/13 09:28:29;;;;;;;;;43.25;38.50;;;;;2.38;56.06;100286.91;5074776;28;45415;-75
2022/12/13 09:30:57;;;;;;;;;34.75;33.25;;;;;2.28;55.70;100236.31;5074987;27;46343;-74
2022/12/13 09:33:23;;;;;;;;;43.00;40.00;;;;;2.88;56.05;100283.47;5075188;27;46300;-75
2022/12/13 09:35:49;;;;;;;;;46.50;40.00;;;;;2.00;55.20;100134.59;5075261;27;45383;-75
2022/12/13 09:38:15;;;;;;;;;46.00;39.75;;;;;2.71;54.16;100284.03;5074700;28;45441;-75
2022/12/13 09:40:44;;;;;;;;;42.00;39.25;;;;;2.28;54.99;100256.50;5075941;27;45589;-76
2022/12/13 09:43:21;;;;;;;;;51.50;41.75;;;;;2.63;55.81;100288.72;5075866;27;45386;-76
2022/12/13 09:45:49;;;;;;;;;54.75;42.00;;;;;2.84;54.91;100289.75;5075752;27;45445;-75
2022/12/13 09:48:17;;;;;;;;;38.25;38.25;;;;;2.90;55.29;100283.41;5074038;27;45415;-75
2022/12/13 09:50:43;;;;;;;;;45.75;37.50;;;;;3.12;55.00;100287.00;5074133;27;46251;-75
2022/12/13 09:53:15;;;;;;;;;32.25;31.25;;;;;3.14;54.16;100276.41;5073016;28;45747;-75
2022/12/13 09:55:44;;;;;;;;;48.00;40.00;;;;;2.84;53.48;100242.34;5073995;27;45455;-75
2022/12/13 09:58:27;;;;;;;;;39.00;31.75;;;;;2.84;53.23;100235.28;5074482;27;45401;-75
2022/12/13 10:00:54;;;;;;;;;41.75;31.75;;;;;2.89;53.52;100216.69;5074229;27;47203;-76
2022/12/13 10:03:22;;;;;;;;;36.00;35.00;;;;;3.48;54.01;100281.31;5074280;27;45647;-76
2022/12/13 10:06:31;;;;;;;;;43.25;38.25;;;;;3.54;53.48;100245.94;5089592;27;45551;-76
2022/12/13 10:08:59;;;;;;;;;34.50;30.25;;;;;2.77;52.43;100136.31;5074386;27;45464;-75
2022/12/13 10:11:27;;;;;;;;;41.50;36.25;;;;;3.62;53.20;100282.59;5073385;27;46326;-75
2022/12/13 10:14:01;;;;;;;;;38.75;33.50;;;;;3.92;51.27;100284.97;5073736;27;45354;-75
2022/12/13 10:16:35;;;;;;;;;47.00;40.00;;;;;3.92;51.83;100279.69;5072516;28;45424;-76
2022/12/13 10:19:22;;;;;;;;;35.25;30.00;;;;;3.90;51.77;100276.22;5074341;28;45383;-76
2022/12/13 10:21:50;;;;;;;;;51.00;38.50;;;;;3.69;50.81;100274.34;5069411;28;45935;-75
2022/12/13 10:24:26;;;;;;;;;45.25;37.75;;;;;3.73;51.39;100274.25;5073986;28;45331;-76
2022/12/13 10:26:52;;;;;;;;;42.25;36.75;;;;;3.76;51.97;100272.34;5073460;27;45530;-76
2022/12/13 10:29:18;;;;;;;;;36.25;31.00;;;;;4.14;50.87;100234.81;5073614;28;45407;-75
2022/12/13 10:31:47;;;;;;;;;39.50;37.25;;;;;4.35;50.40;100198.75;5073642;27;46104;-76
2022/12/13 10:34:25;;;;;;;;;33.75;30.75;;;;;4.43;50.25;100265.31;5073711;27;45408;-75
2022/12/13 10:36:51;;;;;;;;;44.25;37.50;;;;;4.81;49.80;100260.16;5073550;27;45418;-76
2022/12/13 10:39:39;;;;;;;;;44.50;39.00;;;;;5.01;49.66;100261.09;5073886;27;45506;-76
2022/12/13 10:42:19;;;;;;;;;40.25;38.00;;;;;5.27;48.18;100246.72;5073613;27;45700;-75
2022/12/13 10:44:45;;;;;;;;;26.25;20.75;;;;;5.36;47.22;100256.88;5073621;27;46204;-76
2022/12/13 10:47:24;;;;;;;;;36.25;31.75;;;;;5.51;47.42;100262.41;5073409;27;45481;-76
2022/12/13 10:49:52;;;;;;;;;31.50;29.75;;;;;5.79;47.73;100255.81;5073768;27;45580;-76
2022/12/13 10:52:23;;;;;;;;;33.00;29.75;;;;;5.49;46.41;100257.19;5073222;27;45496;-76
2022/12/13 10:54:50;;;;;;;;;41.75;36.75;;;;;5.22;46.16;100251.34;5073264;28;45477;-76
2022/12/13 10:57:16;;;;;;;;;34.00;31.50;;;;;5.53;46.27;100258.75;5072044;28;45592;-76
2022/12/13 10:59:43;;;;;;;;;39.75;37.50;;;;;5.45;45.91;100226.47;5073300;27;45437;-76
2022/12/13 11:02:26;;;;;;;;;30.50;29.00;;;;;5.65;46.03;100228.19;5073211;27;45374;-76
2022/12/13 11:04:52;;;;;;;;;32.25;32.00;;;;;5.53;46.11;100216.44;5073408;28;45671;-76
2022/12/13 11:07:27;;;;;;;;;35.00;32.75;;;;;5.37;46.75;100218.03;5073838;27;45354;-75
2022/12/13 11:09:53;;;;;;;;;29.25;26.50;;;;;4.69;47.21;100213.97;5073340;27;45372;-76
2022/12/13 11:12:23;;;;;;;;;33.00;30.75;;;;;4.94;47.44;100202.34;5072872;27;45391;-76
2022/12/13 11:14:55;;;;;;;;;28.25;26.00;;;;;5.41;45.85;100198.47;5071646;27;45393;-75
2022/12/13 11:17:25;;;;;;;;;33.25;28.75;;;;;5.16;45.91;100201.41;5072912;27;45424;-75
2022/12/13 11:19:53;;;;;;;;;38.50;36.50;;;;;4.96;46.17;100199.66;5073101;28;45365;-75
2022/12/13 11:22:24;;;;;;;;;38.00;33.75;;;;;4.67;47.64;100207.94;5073074;28;45427;-75
2022/12/13 11:24:57;;;;;;;;;39.25;34.00;;;;;4.60;46.89;100210.88;5071446;28;45678;-75
2022/12/13 11:27:32;;;;;;;;;36.25;32.75;;;;;4.72;48.40;100181.28;5071645;28;45423;-75
2022/12/13 11:30:19;;;;;;;;;34.75;32.50;;;;;4.96;47.81;100195.19;5072842;27;45520;-75
2022/12/13 11:32:59;;;;;;;;;37.50;32.00;;;;;5.08;47.64;100199.09;5072691;28;46283;-75
2022/12/13 11:35:50;;;;;;;;;33.75;33.75;;;;;5.37;45.91;100191.59;5072867;27;45433;-75